createdAt,value
2019-05-22T00:02:22.318Z,37.55
2019-05-22T00:05:13.866Z,36.55
2019-05-22T00:07:49.602Z,39.60
2019-05-22T00:10:26.754Z,37.88
2019-05-22T00:13:00.298Z,36.43
2019-05-22T00:15:34.392Z,37.15
2019-05-22T00:18:10.597Z,37.30
2019-05-22T00:20:45.474Z,33.55
2019-05-22T00:23:20.295Z,35.33
2019-05-22T00:25:54.770Z,36.98
2019-05-22T00:31:01.779Z,35.67
2019-05-22T00:33:36.417Z,34.03
2019-05-22T00:36:11.340Z,35.33
2019-05-22T00:38:46.694Z,33.70
2019-05-22T00:41:22.665Z,35.48
2019-05-22T00:43:58.706Z,34.48
2019-05-22T00:46:31.287Z,33.98
2019-05-22T00:49:05.517Z,39.20
2019-05-22T00:51:44.529Z,34.48
2019-05-22T00:54:25.300Z,37.03
2019-05-22T00:56:59.341Z,36.42
2019-05-22T01:02:13.772Z,35.17
2019-05-22T01:04:48.721Z,36.76
2019-05-22T01:07:22.848Z,38.67
2019-05-22T01:09:59.043Z,40.83
2019-05-22T01:12:33.479Z,41.05
2019-05-22T01:15:12.279Z,42.80
2019-05-22T01:20:19.786Z,37.28
2019-05-22T01:22:54.286Z,41.30
2019-05-22T01:25:29.391Z,39.33
2019-05-22T01:30:00.816Z,41.50
2019-05-22T01:32:40.499Z,38.50
2019-05-22T01:37:48.734Z,42.37
2019-05-22T01:40:30.298Z,44.23
2019-05-22T01:43:09.315Z,45.20
2019-05-22T01:45:44.330Z,46.10
2019-05-22T01:48:27.766Z,42.40
2019-05-22T01:51:01.932Z,43.78
2019-05-22T01:53:39.363Z,47.23
2019-05-22T01:56:13.901Z,47.88
2019-05-22T01:58:47.621Z,47.12
2019-05-22T02:01:22.443Z,49.42
2019-05-22T02:03:56.616Z,48.20
2019-05-22T02:06:30.754Z,52.58
2019-05-22T02:09:18.562Z,53.38
2019-05-22T02:11:57.323Z,49.90
2019-05-22T02:14:30.823Z,48.70
2019-05-22T02:17:06.294Z,42.45
2019-05-22T02:19:39.214Z,44.45
2019-05-22T02:22:13.578Z,40.80
2019-05-22T02:24:49.311Z,43.86
2019-05-22T02:29:55.765Z,42.87
2019-05-22T02:32:29.659Z,46.50
2019-05-22T02:37:36.586Z,46.05
2019-05-22T02:40:24.803Z,48.30
2019-05-22T02:42:58.283Z,47.87
2019-05-22T02:45:34.411Z,50.70
2019-05-22T02:48:09.741Z,47.20
2019-05-22T02:50:42.608Z,51.26
2019-05-22T02:53:17.291Z,51.68
2019-05-22T02:55:51.281Z,54.83
2019-05-22T02:58:24.648Z,51.63
2019-05-22T03:01:06.837Z,49.40
2019-05-22T03:03:39.640Z,48.70
2019-05-22T03:06:17.499Z,48.63
2019-05-22T03:09:12.137Z,53.08
2019-05-22T03:12:02.653Z,52.58
2019-05-22T03:14:36.378Z,51.58
2019-05-22T03:17:15.570Z,54.88
2019-05-22T03:19:48.038Z,51.00
2019-05-22T03:23:08.464Z,50.35
2019-05-22T03:25:44.375Z,47.80
2019-05-22T03:28:17.609Z,51.04
2019-05-22T03:30:52.282Z,48.63
2019-05-22T03:33:25.436Z,49.77
2019-05-22T03:36:15.984Z,45.87
2019-05-22T03:38:49.590Z,47.70
2019-05-22T03:41:24.332Z,44.58
2019-05-22T03:43:58.844Z,41.18
2019-05-22T03:46:37.569Z,41.98
2019-05-22T03:49:29.307Z,44.67
2019-05-22T03:51:52.807Z,40.25
2019-05-22T03:54:26.821Z,42.30
2019-05-22T03:57:00.309Z,39.23
2019-05-22T04:02:06.422Z,39.08
2019-05-22T04:04:42.650Z,43.13
2019-05-22T04:07:17.342Z,41.10
2019-05-22T04:09:52.327Z,40.57
2019-05-22T04:12:27.237Z,41.73
2019-05-22T04:15:00.624Z,42.55
2019-05-22T04:17:36.423Z,43.00
2019-05-22T04:22:44.277Z,40.93
2019-05-22T04:25:17.589Z,41.60
2019-05-22T04:27:51.563Z,40.78
2019-05-22T04:30:26.039Z,39.25
2019-05-22T04:38:19.929Z,38.78
2019-05-22T04:43:00.342Z,43.15
2019-05-22T04:45:32.813Z,40.78
2019-05-22T04:48:06.774Z,43.40
2019-05-22T04:50:40.328Z,40.98
2019-05-22T04:53:13.384Z,43.35
2019-05-22T04:55:46.299Z,43.42
2019-05-22T04:58:21.737Z,42.05
2019-05-22T05:03:44.947Z,37.65
2019-05-22T05:06:19.002Z,37.58
2019-05-22T05:08:52.632Z,38.75
2019-05-22T05:11:26.746Z,35.17
2019-05-22T05:13:59.321Z,38.38
2019-05-22T05:16:31.722Z,34.55
2019-05-22T05:19:05.741Z,36.53
2019-05-22T05:21:40.303Z,33.75
2019-05-22T05:24:13.661Z,34.10
2019-05-22T05:26:46.741Z,31.42
2019-05-22T05:29:33.659Z,31.77
2019-05-22T05:32:08.050Z,32.93
2019-05-22T05:34:55.524Z,32.80
2019-05-22T05:37:28.802Z,30.92
2019-05-22T05:40:10.287Z,29.57
2019-05-22T05:42:43.453Z,31.12
2019-05-22T05:45:16.508Z,30.68
2019-05-22T05:47:49.289Z,31.95
2019-05-22T05:50:37.847Z,33.70
2019-05-22T05:54:23.790Z,29.37
2019-05-22T05:57:19.336Z,29.35
2019-05-22T05:59:52.051Z,30.20
2019-05-22T06:02:25.661Z,27.55
2019-05-22T06:04:58.281Z,25.68
2019-05-22T06:07:30.794Z,27.62
2019-05-22T06:10:38.520Z,25.75
2019-05-22T06:13:13.297Z,25.60
2019-05-22T06:15:57.350Z,24.50
2019-05-22T06:21:12.288Z,24.75
2019-05-22T06:24:06.676Z,24.00
2019-05-22T06:26:51.697Z,25.00
2019-05-22T06:29:28.265Z,22.93
2019-05-22T06:32:13.287Z,24.15
2019-05-22T06:36:55.300Z,22.70
2019-05-22T06:39:28.018Z,22.20
2019-05-22T06:42:00.579Z,21.25
2019-05-22T06:44:37.876Z,22.15
2019-05-22T06:47:15.289Z,22.02
2019-05-22T06:49:49.527Z,21.62
2019-05-22T06:52:22.264Z,22.02
2019-05-22T06:54:55.594Z,22.93
2019-05-22T06:57:29.834Z,22.62
2019-05-22T07:00:14.335Z,19.23
2019-05-22T07:02:45.109Z,20.15
2019-05-22T07:05:20.660Z,21.82
2019-05-22T07:07:53.300Z,20.92
2019-05-22T07:10:26.349Z,20.00
2019-05-22T07:13:01.291Z,20.27
2019-05-22T07:15:37.738Z,18.77
2019-05-22T07:18:13.404Z,18.70
2019-05-22T07:20:49.588Z,19.57
2019-05-22T07:23:25.018Z,20.20
2019-05-22T07:25:58.841Z,19.62
2019-05-22T07:28:31.409Z,19.10
2019-05-22T07:31:07.389Z,18.23
2019-05-22T07:33:39.842Z,19.52
2019-05-22T07:36:16.627Z,18.42
2019-05-22T07:38:47.845Z,18.87
2019-05-22T07:42:08.291Z,18.80
2019-05-22T07:44:41.293Z,18.25
2019-05-22T07:47:17.406Z,17.82
2019-05-22T07:49:49.778Z,17.55
2019-05-22T07:52:23.318Z,17.62
2019-05-22T07:54:56.288Z,17.30
2019-05-22T07:57:30.259Z,16.20
2019-05-22T08:00:03.326Z,16.80
2019-05-22T08:02:50.894Z,17.00
2019-05-22T08:05:25.892Z,16.55
2019-05-22T08:07:58.286Z,16.77
2019-05-22T08:10:30.731Z,14.83
2019-05-22T08:13:03.615Z,15.95
2019-05-22T08:15:36.447Z,15.55
2019-05-22T08:18:09.838Z,14.43
2019-05-22T08:20:42.746Z,14.58
2019-05-22T08:23:16.118Z,15.03
2019-05-22T08:25:49.286Z,14.83
2019-05-22T08:28:22.696Z,14.93
2019-05-22T08:30:56.506Z,14.63
2019-05-22T08:36:01.533Z,13.65
2019-05-22T08:41:11.288Z,13.83
2019-05-22T08:44:15.450Z,14.98
2019-05-22T08:46:21.730Z,14.10
2019-05-22T08:48:55.755Z,14.00
2019-05-22T08:51:28.252Z,12.27
2019-05-22T08:54:05.834Z,12.37
2019-05-22T08:56:44.867Z,12.05
2019-05-22T08:59:19.906Z,11.88
2019-05-22T09:01:59.283Z,12.05
2019-05-22T09:04:31.761Z,11.90
2019-05-22T09:07:04.577Z,11.20
2019-05-22T09:09:37.276Z,11.75
2019-05-22T09:12:11.603Z,12.05
2019-05-22T09:14:45.808Z,11.20
2019-05-22T09:17:19.688Z,10.63
2019-05-22T09:19:53.282Z,9.03
2019-05-22T09:22:39.502Z,9.10
2019-05-22T09:25:01.386Z,8.70
2019-05-22T09:27:33.979Z,7.90
2019-05-22T09:30:11.299Z,8.23
2019-05-22T09:32:47.561Z,8.38
2019-05-22T09:35:20.248Z,7.53
2019-05-22T09:37:52.519Z,8.45
2019-05-22T09:40:25.416Z,8.13
2019-05-22T09:42:58.352Z,8.65
2019-05-22T09:45:32.115Z,7.78
2019-05-22T09:48:08.297Z,8.45
2019-05-22T09:50:40.886Z,6.92
2019-05-22T09:53:13.851Z,8.25
2019-05-22T09:55:47.755Z,8.43
2019-05-22T09:58:23.774Z,8.36
2019-05-22T10:00:56.755Z,8.70
2019-05-22T10:03:29.634Z,8.43
2019-05-22T10:06:03.102Z,8.03
2019-05-22T10:08:36.610Z,9.13
2019-05-22T10:11:09.312Z,9.33
2019-05-22T10:15:57.263Z,9.50
2019-05-22T10:18:29.779Z,8.20
2019-05-22T10:21:02.358Z,7.33
2019-05-22T10:23:35.280Z,8.05
2019-05-22T10:26:08.794Z,8.70
2019-05-22T10:28:43.727Z,7.37
2019-05-22T10:31:17.916Z,7.75
2019-05-22T10:33:52.090Z,7.04
2019-05-22T10:36:24.812Z,6.87
2019-05-22T10:38:58.721Z,6.40
2019-05-22T10:41:31.426Z,6.90
2019-05-22T10:44:05.606Z,6.12
2019-05-22T10:46:38.316Z,6.90
2019-05-22T10:49:10.768Z,6.97
2019-05-22T10:51:43.295Z,6.55
2019-05-22T10:56:52.142Z,6.50
2019-05-22T11:01:58.332Z,6.47
2019-05-22T11:04:32.307Z,7.42
2019-05-22T11:07:07.410Z,7.17
2019-05-22T11:09:40.701Z,6.50
2019-05-22T11:12:14.595Z,6.12
2019-05-22T11:14:49.485Z,5.50
2019-05-22T11:17:21.842Z,5.78
2019-05-22T11:19:55.303Z,6.72
2019-05-22T11:22:28.314Z,5.15
2019-05-22T11:25:01.458Z,5.80
2019-05-22T11:27:34.309Z,5.28
2019-05-22T11:30:11.847Z,6.62
2019-05-22T11:35:20.799Z,5.97
2019-05-22T11:37:53.334Z,5.78
2019-05-22T11:40:26.566Z,6.42
2019-05-22T11:42:59.673Z,6.47
2019-05-22T11:45:34.685Z,6.45
2019-05-22T11:48:07.686Z,6.33
2019-05-22T11:50:44.334Z,6.35
2019-05-22T11:54:07.969Z,6.08
2019-05-22T11:56:32.279Z,6.05
2019-05-22T11:59:06.419Z,5.90
2019-05-22T12:01:40.016Z,5.90
2019-05-22T12:04:13.404Z,5.30
2019-05-22T12:06:47.443Z,5.42
2019-05-22T12:09:19.768Z,5.00
2019-05-22T12:11:52.880Z,4.90
2019-05-22T12:14:25.339Z,4.75
2019-05-22T12:16:58.266Z,5.12
2019-05-22T12:19:30.866Z,4.20
2019-05-22T12:22:03.309Z,4.30
2019-05-22T12:24:37.217Z,3.33
2019-05-22T12:27:11.317Z,3.08
2019-05-22T12:29:46.393Z,3.10
2019-05-22T12:32:19.362Z,2.90
2019-05-22T12:34:52.286Z,3.30
2019-05-22T12:37:25.288Z,3.50
2019-05-22T12:39:58.279Z,3.72
2019-05-22T12:42:31.324Z,4.08
2019-05-22T12:45:04.554Z,3.90
2019-05-22T12:47:37.396Z,4.42
2019-05-22T12:50:11.993Z,4.47
2019-05-22T12:52:49.620Z,4.72
2019-05-22T12:55:22.645Z,4.27
2019-05-22T12:57:55.506Z,3.65
2019-05-22T13:00:29.656Z,4.13
2019-05-22T13:03:05.310Z,3.98
2019-05-22T13:05:43.046Z,3.52
2019-05-22T13:08:19.364Z,3.65
2019-05-22T13:10:53.298Z,3.82
2019-05-22T13:13:25.483Z,3.70
2019-05-22T13:26:12.474Z,3.20
2019-05-22T13:28:50.477Z,3.50
2019-05-22T13:31:24.040Z,4.65
2019-05-22T13:33:58.034Z,3.67
2019-05-22T13:36:31.295Z,3.17
2019-05-22T13:39:06.078Z,3.80
2019-05-22T13:41:39.261Z,3.22
2019-05-22T13:44:13.616Z,3.20
2019-05-22T13:46:49.614Z,5.36
2019-05-22T13:49:23.301Z,4.40
2019-05-22T13:51:55.652Z,3.30
2019-05-22T13:54:28.403Z,3.25
2019-05-22T13:57:01.325Z,2.80
2019-05-22T13:59:34.338Z,2.80
2019-05-22T14:02:07.441Z,4.10
2019-05-22T14:04:40.713Z,4.17
2019-05-22T14:07:14.346Z,4.05
2019-05-22T14:09:47.799Z,3.15
2019-05-22T14:12:20.600Z,2.55
2019-05-22T14:14:56.436Z,2.72
2019-05-22T14:17:29.299Z,2.43
2019-05-22T14:20:02.283Z,2.15
2019-05-22T14:22:37.650Z,1.92
2019-05-22T14:25:10.852Z,1.90
2019-05-22T14:27:43.475Z,2.02
2019-05-22T14:30:20.296Z,2.08
2019-05-22T14:32:52.625Z,1.90
2019-05-22T14:35:32.911Z,2.30
2019-05-22T14:38:03.028Z,2.50
2019-05-22T14:40:36.376Z,2.00
2019-05-22T14:43:09.456Z,2.00
2019-05-22T14:45:43.308Z,2.10
2019-05-22T14:48:16.441Z,1.92
2019-05-22T14:50:50.022Z,1.55
2019-05-22T14:53:24.289Z,1.72
2019-05-22T14:55:57.017Z,1.80
2019-05-22T14:58:30.290Z,1.75
2019-05-22T15:01:03.346Z,1.80
2019-05-22T15:03:39.285Z,1.87
2019-05-22T15:06:12.337Z,1.92
2019-05-22T15:08:44.698Z,2.43
2019-05-22T15:11:18.707Z,2.40
2019-05-22T15:13:51.339Z,3.30
2019-05-22T15:18:56.192Z,3.40
2019-05-22T15:24:01.331Z,3.35
2019-05-22T15:26:33.900Z,3.40
2019-05-22T15:29:07.355Z,2.90
2019-05-22T15:31:39.677Z,2.70
2019-05-22T15:34:13.750Z,2.70
2019-05-22T15:36:47.447Z,2.77
2019-05-22T15:39:25.853Z,2.60
2019-05-22T15:44:31.100Z,2.22
2019-05-22T15:47:03.984Z,2.17
2019-05-22T15:49:38.965Z,2.05
2019-05-22T15:52:16.661Z,2.17
2019-05-22T15:54:50.911Z,2.20
2019-05-22T15:57:24.289Z,2.20
2019-05-22T15:59:58.343Z,2.10
2019-05-22T16:02:34.291Z,1.82
2019-05-22T16:05:09.754Z,2.00
2019-05-22T16:07:43.310Z,2.98
2019-05-22T16:10:19.582Z,3.75
2019-05-22T16:12:54.677Z,3.50
2019-05-22T16:15:30.664Z,3.95
2019-05-22T16:18:11.804Z,3.35
2019-05-22T16:20:42.844Z,3.62
2019-05-22T16:23:15.753Z,3.30
2019-05-22T16:25:49.470Z,3.52
2019-05-22T16:28:25.318Z,3.10
2019-05-22T16:31:01.301Z,3.20
2019-05-22T16:33:35.462Z,3.10
2019-05-22T16:36:10.296Z,2.95
2019-05-22T16:38:45.798Z,2.70
2019-05-22T16:41:21.311Z,3.22
2019-05-22T16:43:54.324Z,2.90
2019-05-22T16:46:28.308Z,2.92
2019-05-22T16:49:00.924Z,3.70
2019-05-22T16:51:33.659Z,3.37
2019-05-22T16:54:11.688Z,2.80
2019-05-22T16:56:44.302Z,3.00
2019-05-22T16:59:21.304Z,3.40
2019-05-22T17:01:59.445Z,2.90
2019-05-22T17:04:29.707Z,3.42
2019-05-22T17:07:04.744Z,3.05
2019-05-22T17:09:43.551Z,3.40
2019-05-22T17:12:19.682Z,3.10
2019-05-22T17:14:53.285Z,3.27
2019-05-22T17:17:26.320Z,3.08
2019-05-22T17:19:59.336Z,3.25
2019-05-22T17:22:32.311Z,3.00
2019-05-22T17:25:06.303Z,2.77
2019-05-22T17:27:39.507Z,3.30
2019-05-22T17:30:20.460Z,2.80
2019-05-22T17:32:50.754Z,2.92
2019-05-22T17:35:24.801Z,3.38
2019-05-22T17:40:32.866Z,3.45
2019-05-22T17:43:07.323Z,2.90
2019-05-22T17:45:42.307Z,3.45
2019-05-22T17:48:16.666Z,2.92
2019-05-22T17:50:50.308Z,3.80
2019-05-22T17:53:23.064Z,2.95
2019-05-22T17:55:55.999Z,3.30
2019-05-22T17:58:30.060Z,3.20
2019-05-22T18:01:19.909Z,3.25
2019-05-22T18:04:02.305Z,3.34
2019-05-22T18:06:35.169Z,3.15
2019-05-22T18:09:11.424Z,3.52
2019-05-22T18:11:44.315Z,3.42
2019-05-22T18:14:16.973Z,3.52
2019-05-22T18:16:49.544Z,3.27
2019-05-22T18:19:23.030Z,3.52
2019-05-22T18:21:57.421Z,3.63
2019-05-22T18:24:30.331Z,3.70
2019-05-22T18:27:02.530Z,3.50
2019-05-22T18:29:35.296Z,3.30
2019-05-22T18:32:09.076Z,3.58
2019-05-22T18:34:42.291Z,3.72
2019-05-22T18:37:14.749Z,4.97
2019-05-22T18:39:47.292Z,4.08
2019-05-22T18:42:20.288Z,3.72
2019-05-22T18:44:53.669Z,3.96
2019-05-22T18:47:27.529Z,3.92
2019-05-22T18:50:00.395Z,4.03
2019-05-22T18:52:40.881Z,4.80
2019-05-22T18:55:09.330Z,4.58
2019-05-22T18:57:42.310Z,4.65
2019-05-22T19:00:20.029Z,4.50
2019-05-22T19:02:52.994Z,4.28
2019-05-22T19:05:30.053Z,4.78
2019-05-22T19:08:06.162Z,4.30
2019-05-22T19:10:40.633Z,4.12
2019-05-22T19:13:16.550Z,4.80
2019-05-22T19:15:50.905Z,4.70
2019-05-22T19:18:23.321Z,4.30
2019-05-22T19:20:58.300Z,4.35
2019-05-22T19:23:30.754Z,5.50
2019-05-22T19:26:05.706Z,5.25
2019-05-22T19:28:44.022Z,5.87
2019-05-22T19:31:12.690Z,5.80
2019-05-22T19:36:19.826Z,5.48
2019-05-22T19:41:31.288Z,6.45
2019-05-22T19:44:03.733Z,6.28
2019-05-22T19:46:36.315Z,6.15
2019-05-22T19:49:09.310Z,7.28
2019-05-22T19:51:44.529Z,7.15
2019-05-22T19:54:17.158Z,7.00
2019-05-22T19:56:51.308Z,7.42
2019-05-22T19:59:24.347Z,6.72
2019-05-22T20:01:56.818Z,7.05
2019-05-22T20:04:30.041Z,7.08
2019-05-22T20:07:04.509Z,7.00
2019-05-22T20:09:40.390Z,6.90
2019-05-22T20:12:14.518Z,6.70
2019-05-22T20:14:47.420Z,6.37
2019-05-22T20:17:20.783Z,6.96
2019-05-22T20:19:54.068Z,7.78
2019-05-22T20:22:27.641Z,7.65
2019-05-22T20:25:01.703Z,7.90
2019-05-22T20:27:35.750Z,7.33
2019-05-22T20:30:13.298Z,8.40
2019-05-22T20:32:45.861Z,8.55
2019-05-22T20:35:19.303Z,8.58
2019-05-22T20:37:52.329Z,8.10
2019-05-22T20:40:27.154Z,8.58
2019-05-22T20:43:00.731Z,9.87
2019-05-22T20:45:33.741Z,9.65
2019-05-22T20:48:15.310Z,9.05
2019-05-22T20:50:48.299Z,9.43
2019-05-22T20:53:22.658Z,9.28
2019-05-22T20:55:56.324Z,9.00
2019-05-22T20:58:31.023Z,9.78
2019-05-22T21:01:04.026Z,10.58
2019-05-22T21:03:37.308Z,10.38
2019-05-22T21:06:16.327Z,10.05
2019-05-22T21:08:50.736Z,9.95
2019-05-22T21:11:27.838Z,10.50
2019-05-22T21:14:00.622Z,9.73
2019-05-22T21:16:34.637Z,10.53
2019-05-22T21:19:09.832Z,10.90
2019-05-22T21:21:42.816Z,9.95
2019-05-22T21:26:51.445Z,11.38
2019-05-22T21:29:24.659Z,11.22
2019-05-22T21:31:57.396Z,10.98
2019-05-22T21:34:30.309Z,11.30
2019-05-22T21:37:03.311Z,11.80
2019-05-22T21:43:38.350Z,11.60
2019-05-22T21:46:11.387Z,12.93
2019-05-22T21:48:45.369Z,12.05
2019-05-22T21:51:17.802Z,12.13
2019-05-22T21:53:54.687Z,12.54
2019-05-22T21:56:27.773Z,12.97
2019-05-22T21:59:00.318Z,11.57
2019-05-22T22:01:35.658Z,12.53
2019-05-22T22:04:10.900Z,13.05
2019-05-22T22:06:45.015Z,12.25
2019-05-22T22:09:18.989Z,12.03
2019-05-22T22:11:51.580Z,12.37
2019-05-22T22:14:27.317Z,13.28
2019-05-22T22:17:03.088Z,13.60
2019-05-22T22:19:35.843Z,13.25
2019-05-22T22:22:17.743Z,12.95
2019-05-22T22:24:53.400Z,13.08
2019-05-22T22:27:26.696Z,13.02
2019-05-22T22:30:00.625Z,12.98
2019-05-22T22:32:35.464Z,13.93
2019-05-22T22:35:21.843Z,14.20
2019-05-22T22:37:55.423Z,13.00
2019-05-22T22:40:30.374Z,12.68
2019-05-22T22:43:06.391Z,14.07
2019-05-22T22:45:44.446Z,13.38
2019-05-22T22:48:32.360Z,13.60
2019-05-22T22:51:10.276Z,14.00
2019-05-22T22:53:46.048Z,12.65
2019-05-22T22:56:19.878Z,14.28
2019-05-22T22:58:53.318Z,14.05
2019-05-22T23:01:34.317Z,14.95
2019-05-22T23:04:10.879Z,14.00
2019-05-22T23:06:44.219Z,14.83
2019-05-22T23:09:18.666Z,14.85
2019-05-22T23:11:53.336Z,14.76
2019-05-22T23:14:27.975Z,15.23
2019-05-22T23:17:01.289Z,15.65
2019-05-22T23:19:35.648Z,15.08
2019-05-22T23:22:06.281Z,14.28
2019-05-22T23:24:40.777Z,16.23
2019-05-22T23:27:14.274Z,15.88
2019-05-22T23:29:47.398Z,15.75
2019-05-22T23:32:21.792Z,15.30
2019-05-22T23:34:55.436Z,16.10
2019-05-22T23:37:30.306Z,16.00
2019-05-22T23:40:03.290Z,15.60
2019-05-22T23:42:42.007Z,16.52
2019-05-22T23:45:22.398Z,16.62
2019-05-22T23:48:08.384Z,16.40
2019-05-22T23:50:42.305Z,15.70
2019-05-22T23:53:16.630Z,16.20
2019-05-22T23:55:50.425Z,16.42
2019-05-22T23:58:25.761Z,15.70
